Time;durP1;ratioP1;P1;durP2;ratioP2;P2;SDS_P1;SDS_P2;PMS_P1;PMS_P2;Temp;Humidity;BMP_temperature;BMP_pressure;BME280_temperature;BME280_humidity;BME280_pressure;Samples;Min_cycle;Max_cycle;Signal;HPM_P1;HPM_P2
2023/03/03 00:02:04;;;;;;;46.77;22.23;;;2.40;80.40;;;5.86;49.55;97807.25;5074030;28;20048;-49
2023/03/03 00:04:32;;;;;;;39.83;20.90;;;2.40;80.70;;;5.87;49.47;97798.34;5065784;28;20055;-52
2023/03/03 00:07:00;;;;;;;40.33;22.90;;;2.40;80.70;;;5.87;49.09;97801.84;5064014;28;20123;-46
2023/03/03 00:09:27;;;;;;;43.67;21.37;;;2.40;80.50;;;5.83;49.44;97803.03;5073784;28;20044;-51
2023/03/03 00:11:59;;;;;;;44.27;22.27;;;2.30;80.90;;;5.74;49.92;97806.47;5073721;28;20052;-50
2023/03/03 00:14:32;;;;;;;41.57;19.90;;;2.20;81.20;;;5.72;49.39;97795.19;5056127;28;20048;-50
2023/03/03 00:17:11;;;;;;;39.90;21.03;;;2.20;81.40;;;5.69;49.79;97806.00;5056019;28;20411;-46
2023/03/03 00:19:40;;;;;;;39.20;20.77;;;2.10;82.10;;;5.67;49.65;97800.81;5050402;28;20491;-46
2023/03/03 00:22:30;;;;;;;42.10;20.87;;;2.20;82.20;;;5.67;49.45;97802.63;5055637;28;20044;-48
2023/03/03 00:25:19;;;;;;;39.80;20.13;;;2.20;81.90;;;5.68;49.47;97791.94;5057344;28;20040;-46
2023/03/03 00:27:47;;;;;;;43.90;22.20;;;2.20;82.00;;;5.67;50.01;97800.81;5067646;28;20511;-46
2023/03/03 00:30:26;;;;;;;40.27;22.37;;;2.20;81.80;;;5.65;49.90;97804.56;5063694;28;20049;-49
2023/03/03 00:32:54;;;;;;;43.97;22.47;;;2.20;82.00;;;5.65;49.43;97800.13;5072662;28;20044;-52
2023/03/03 00:35:34;;;;;;;43.63;22.70;;;2.20;82.00;;;5.67;49.25;97803.47;5054251;28;20052;-50
2023/03/03 00:38:17;;;;;;;41.90;20.60;;;2.20;81.80;;;5.66;49.29;97803.59;5073145;28;20052;-46
2023/03/03 00:40:46;;;;;;;46.97;21.93;;;2.20;81.60;;;5.66;49.68;97801.81;5032885;28;20044;-49
2023/03/03 00:43:24;;;;;;;34.47;20.57;;;2.20;81.80;;;5.62;49.06;97804.81;5054691;28;20799;-46
2023/03/03 00:45:56;;;;;;;40.43;21.43;;;2.10;82.00;;;5.60;49.32;97804.94;5054636;28;20041;-47
2023/03/03 00:48:42;;;;;;;43.93;22.43;;;2.10;82.40;;;5.57;49.50;97801.72;5072966;28;20036;-52
2023/03/03 00:51:33;;;;;;;39.60;22.03;;;2.10;82.40;;;5.56;49.39;97795.59;5073115;28;20048;-48
2023/03/03 00:54:00;;;;;;;44.13;23.73;;;2.10;82.20;;;5.61;49.52;97797.88;5038578;28;20401;-49
2023/03/03 00:56:28;;;;;;;41.00;21.70;;;2.00;82.00;;;5.58;49.47;97798.94;5054053;28;20405;-49
2023/03/03 00:58:56;;;;;;;42.93;21.63;;;2.10;82.20;;;5.60;49.61;97802.28;5054527;28;20036;-49
2023/03/03 01:01:27;;;;;;;47.10;21.93;;;2.10;82.00;;;5.60;49.85;97798.81;5072308;28;20416;-46
2023/03/03 01:03:54;;;;;;;43.17;22.00;;;2.10;81.80;;;5.56;49.33;97802.69;5055048;28;20419;-46
2023/03/03 01:06:22;;;;;;;42.20;22.17;;;2.10;81.90;;;5.56;49.56;97798.22;5053807;28;20060;-47
2023/03/03 01:08:50;;;;;;;39.70;20.97;;;2.10;81.80;;;5.54;49.41;97786.94;5062655;28;20059;-49
2023/03/03 01:11:24;;;;;;;42.43;21.93;;;2.10;81.80;;;5.50;49.67;97789.00;5054142;28;20052;-51
2023/03/03 01:13:52;;;;;;;;;;;2.00;81.80;;;5.45;49.78;97785.91;5073162;28;20045;-52
2023/03/03 01:16:20;;;;;;;38.63;20.87;;;2.00;82.40;;;5.50;49.28;97789.00;5037498;28;19927;-48
2023/03/03 01:18:47;;;;;;;44.93;21.73;;;1.90;82.20;;;5.49;49.75;97786.50;5055051;28;20040;-47
2023/03/03 01:21:15;;;;;;;40.67;21.17;;;2.00;82.40;;;5.47;49.31;97788.44;5054042;28;20049;-49
2023/03/03 01:23:43;;;;;;;41.53;21.63;;;1.90;82.20;;;5.45;49.90;97796.47;5053843;28;20063;-47
2023/03/03 01:26:10;;;;;;;46.20;23.20;;;2.00;82.20;;;5.46;50.10;97797.31;5071830;28;20055;-47
2023/03/03 01:28:38;;;;;;;41.37;22.33;;;2.00;82.10;;;5.47;50.04;97801.66;5071972;28;20043;-50
2023/03/03 01:31:06;;;;;;;50.73;22.70;;;2.00;81.70;;;5.49;49.54;97797.06;5062892;28;20531;-45
2023/03/03 01:33:35;;;;;;;45.90;21.77;;;2.10;81.60;;;5.49;49.28;97802.34;5072052;28;20040;-43
2023/03/03 01:36:03;;;;;;;41.67;22.20;;;2.00;81.30;;;5.48;49.93;97798.84;5053669;28;20048;-46
2023/03/03 01:38:34;;;;;;;42.00;23.20;;;2.00;81.20;;;5.47;49.91;97806.94;5062374;28;20060;-44
2023/03/03 01:41:02;;;;;;;43.43;22.10;;;2.00;81.00;;;5.43;49.76;97798.41;5062057;28;20048;-47
2023/03/03 01:43:32;;;;;;;47.07;22.87;;;2.00;81.50;;;5.40;49.56;97805.75;5062162;28;20059;-44
2023/03/03 01:45:59;;;;;;;42.37;23.53;;;1.90;81.40;;;5.40;50.07;97803.94;5054163;28;20044;-47
2023/03/03 01:48:41;;;;;;;43.33;22.80;;;2.00;81.40;;;5.38;49.70;97795.28;5071687;28;20443;-46
2023/03/03 01:51:24;;;;;;;50.00;23.57;;;2.00;81.40;;;5.37;49.98;97798.91;5054571;28;20504;-43
2023/03/03 01:54:11;;;;;;;46.25;23.65;;;1.90;81.00;;;5.37;49.62;97792.78;5046949;28;20048;-45
2023/03/03 01:56:40;;;;;;;44.43;22.53;;;1.80;81.30;;;5.37;49.40;97783.06;5038201;28;20411;-43
2023/03/03 01:59:24;;;;;;;50.63;22.73;;;1.80;81.50;;;5.32;49.34;97780.78;5053286;28;20041;-48
2023/03/03 02:01:52;;;;;;;;;;;1.90;81.30;;;5.26;48.97;97780.47;5032388;28;20063;-46
2023/03/03 02:04:20;;;;;;;44.77;22.03;;;1.80;81.70;;;5.31;49.54;97778.28;5045609;28;19969;-42
2023/03/03 02:06:57;;;;;;;49.10;24.43;;;1.70;81.60;;;5.27;49.38;97772.44;5053214;28;20048;-43
2023/03/03 02:10:03;;;;;;;44.60;23.00;;;1.70;81.90;;;5.23;49.34;97772.78;5052626;28;20396;-43
2023/03/03 02:12:38;;;;;;;38.57;21.37;;;1.70;81.90;;;5.22;49.16;97768.47;5053420;28;20041;-45
2023/03/03 02:15:36;;;;;;;43.57;20.83;;;1.70;81.80;;;5.13;49.06;97767.41;5053181;28;20499;-43
2023/03/03 02:18:17;;;;;;;44.20;21.57;;;1.70;82.00;;;5.16;50.05;97768.94;5059663;28;20060;-45
2023/03/03 02:20:57;;;;;;;45.67;22.87;;;1.70;82.00;;;5.17;49.27;97774.13;5046676;28;20519;-43
2023/03/03 02:23:48;;;;;;;41.63;23.10;;;1.70;81.60;;;5.16;49.50;97769.81;5053172;28;20056;-46
2023/03/03 02:26:22;;;;;;;42.27;23.27;;;1.70;81.60;;;5.15;50.17;97776.03;5052735;28;20052;-48
2023/03/03 02:28:55;;;;;;;45.70;22.53;;;1.60;81.10;;;5.11;49.43;97772.81;5053274;28;20063;-47
2023/03/03 02:31:26;;;;;;;41.87;21.93;;;1.60;81.50;;;5.11;50.03;97778.09;5071335;28;20048;-45
2023/03/03 02:33:55;;;;;;;44.30;21.97;;;1.60;81.40;;;5.11;49.76;97780.72;5071389;28;20043;-46
2023/03/03 02:36:33;;;;;;;47.83;22.57;;;1.60;81.70;;;5.11;49.58;97774.63;5070927;28;20051;-44
2023/03/03 02:39:19;;;;;;;45.30;21.70;;;1.60;81.60;;;5.14;49.26;97774.38;5070984;28;20052;-44
2023/03/03 02:42:19;;;;;;;48.87;23.07;;;1.60;81.80;;;5.07;49.58;97774.03;5045658;28;20044;-43
2023/03/03 02:44:51;;;;;;;45.22;21.45;;;1.60;82.10;;;5.11;49.49;97777.25;5030919;28;20435;-46
2023/03/03 02:47:18;;;;;;;45.93;23.93;;;1.60;82.10;;;5.09;49.04;97784.47;5071047;28;20507;-44
2023/03/03 02:49:46;;;;;;;44.00;22.57;;;1.50;82.00;;;5.07;49.82;97783.75;5071359;28;20033;-44
2023/03/03 02:52:16;;;;;;;45.53;22.70;;;1.50;81.70;;;5.00;49.92;97772.84;5061422;28;20423;-43
2023/03/03 02:54:46;;;;;;;43.40;21.37;;;1.40;80.90;;;4.92;49.77;97785.78;5061361;28;20045;-45
2023/03/03 02:57:13;;;;;;;47.03;22.40;;;1.30;81.80;;;4.90;50.34;97785.09;5052925;28;20059;-48
2023/03/03 02:59:41;;;;;;;43.20;21.97;;;1.30;81.90;;;4.89;50.37;97780.78;5036905;28;20041;-44
2023/03/03 03:02:13;;;;;;;41.87;20.63;;;1.30;82.30;;;4.87;50.23;97790.63;5045455;28;20052;-43
2023/03/03 03:04:41;;;;;;;43.60;23.90;;;1.30;81.90;;;4.88;50.28;97789.66;5063040;28;20515;-45
2023/03/03 03:07:12;;;;;;;40.70;20.83;;;1.30;82.30;;;4.86;49.58;97786.28;5070767;28;20550;-43
2023/03/03 03:09:39;;;;;;;46.97;22.20;;;1.30;82.10;;;4.86;50.11;97784.47;5061331;28;20045;-43
2023/03/03 03:12:08;;;;;;;41.07;23.93;;;1.30;82.70;;;4.87;49.51;97778.25;5070690;28;20036;-43
2023/03/03 03:14:36;;;;;;;43.27;21.40;;;1.40;82.60;;;4.91;49.77;97781.50;5061095;28;20056;-47
2023/03/03 03:17:05;;;;;;;44.33;21.80;;;1.40;82.70;;;4.94;50.39;97783.88;5060628;28;20049;-44
2023/03/03 03:19:33;;;;;;;46.23;22.77;;;1.50;82.40;;;4.96;49.77;97784.59;5061020;28;20056;-43
2023/03/03 03:22:02;;;;;;;45.83;22.53;;;1.50;82.50;;;5.00;49.62;97785.19;5052974;28;20049;-47
2023/03/03 03:24:32;;;;;;;45.27;21.97;;;1.50;82.70;;;5.05;49.68;97783.84;5060581;28;20048;-45
2023/03/03 03:27:03;;;;;;;48.73;21.67;;;1.50;82.50;;;5.11;49.83;97786.00;5070188;28;20056;-44
2023/03/03 03:29:32;;;;;;;42.63;23.70;;;1.60;82.00;;;5.12;50.44;97790.34;5061155;28;20056;-46
2023/03/03 03:32:00;;;;;;;46.07;23.50;;;1.60;82.30;;;5.15;50.49;97786.59;5052148;28;20508;-44
2023/03/03 03:34:27;;;;;;;47.30;21.97;;;1.60;82.60;;;5.20;50.57;97788.88;5052349;28;20048;-45
2023/03/03 03:36:55;;;;;;;42.83;22.23;;;1.70;82.90;;;5.22;49.94;97790.44;5051965;28;20040;-46
2023/03/03 03:39:25;;;;;;;41.50;21.60;;;1.70;82.60;;;5.23;50.31;97786.81;5052406;28;20049;-45
2023/03/03 03:41:53;;;;;;;46.30;23.30;;;1.70;82.70;;;5.26;50.27;97786.56;5052537;28;20411;-43
2023/03/03 03:44:22;;;;;;;40.47;23.63;;;1.70;82.90;;;5.32;50.31;97794.00;5052636;28;20048;-47
2023/03/03 03:46:50;;;;;;;45.07;23.93;;;1.70;82.80;;;5.33;49.85;97786.91;5070100;28;20040;-47
2023/03/03 03:49:18;;;;;;;45.47;22.80;;;1.80;82.90;;;5.35;50.06;97789.41;5036415;28;20057;-47
2023/03/03 03:51:48;;;;;;;40.83;21.50;;;1.80;83.20;;;5.38;50.23;97790.00;5055462;28;20056;-44
2023/03/03 03:54:19;;;;;;;45.53;23.93;;;1.80;83.30;;;5.41;49.99;97789.78;5055629;28;20055;-47
2023/03/03 03:56:47;;;;;;;44.63;23.20;;;1.90;83.10;;;5.40;49.63;97789.91;5055721;28;20040;-45
2023/03/03 03:59:14;;;;;;;49.37;24.27;;;1.80;84.10;;;5.37;50.39;97788.34;5072371;28;20044;-45
2023/03/03 04:01:42;;;;;;;46.37;24.10;;;1.80;83.40;;;5.36;50.25;97789.31;5055921;28;20507;-43
2023/03/03 04:04:10;;;;;;;47.27;23.23;;;1.80;83.70;;;5.35;50.25;97790.28;5055842;28;20051;-45
2023/03/03 04:06:38;;;;;;;52.37;24.47;;;1.80;83.70;;;5.37;50.42;97787.50;5054996;28;20048;-43
2023/03/03 04:09:06;;;;;;;42.27;21.67;;;1.80;83.90;;;5.36;50.78;97791.13;5073796;28;20052;-50
2023/03/03 04:11:34;;;;;;;45.10;23.00;;;1.80;84.90;;;5.41;50.65;97791.56;5063592;28;20396;-45
2023/03/03 04:14:04;;;;;;;42.70;21.50;;;1.80;84.10;;;5.43;50.77;97787.84;5063730;28;20064;-43
2023/03/03 04:16:32;;;;;;;48.90;22.87;;;1.90;83.80;;;5.43;50.37;97792.28;5063143;28;20053;-45
2023/03/03 04:19:00;;;;;;;47.30;24.43;;;1.90;83.70;;;5.48;50.00;97790.94;5074294;28;20040;-44
2023/03/03 04:21:28;;;;;;;50.27;24.90;;;1.90;83.80;;;5.51;50.40;97789.88;5055314;28;20041;-42
2023/03/03 04:23:58;;;;;;;47.53;23.23;;;2.00;83.60;;;5.49;50.92;97792.63;5055580;28;20523;-43
2023/03/03 04:26:29;;;;;;;47.57;23.97;;;2.00;83.60;;;5.52;50.38;97792.38;5073773;28;20045;-45
2023/03/03 04:29:00;;;;;;;50.80;23.20;;;2.00;83.50;;;5.51;50.45;97788.06;5063434;28;20492;-46
2023/03/03 04:31:28;;;;;;;48.03;24.40;;;1.90;84.00;;;5.53;50.10;97795.84;5055269;28;20059;-43
2023/03/03 04:33:56;;;;;;;48.73;23.73;;;2.00;84.00;;;5.59;50.36;97802.44;5073492;28;20037;-48
2023/03/03 04:36:24;;;;;;;50.73;25.33;;;2.10;83.60;;;5.62;50.75;97807.44;5039089;28;20044;-46
2023/03/03 04:38:52;;;;;;;48.90;24.23;;;2.10;83.70;;;5.67;50.17;97800.00;5063628;28;20040;-43
2023/03/03 04:41:20;;;;;;;54.53;23.57;;;2.10;83.50;;;5.67;50.54;97803.47;5073365;28;20044;-45
2023/03/03 04:43:47;;;;;;;42.87;23.97;;;2.10;83.40;;;5.66;50.51;97806.22;5062716;28;20555;-46
2023/03/03 04:46:15;;;;;;;43.57;23.37;;;2.10;83.70;;;5.67;50.67;97815.84;5038116;28;20427;-45
2023/03/03 04:48:43;;;;;;;44.60;20.63;;;2.10;83.50;;;5.70;50.50;97808.50;5054529;28;20055;-45
2023/03/03 04:51:11;;;;;;;53.47;26.60;;;2.20;83.30;;;5.73;50.62;97810.88;5056134;28;20056;-49
2023/03/03 04:53:38;;;;;;;45.77;23.03;;;2.20;83.30;;;5.79;50.88;97800.78;5060660;28;20044;-49
2023/03/03 04:56:08;;;;;;;42.27;23.03;;;2.20;83.10;;;5.79;50.00;97808.72;5053183;28;20041;-50
2023/03/03 04:58:36;;;;;;;43.77;21.43;;;2.20;82.70;;;5.76;50.52;97816.88;5063537;28;20044;-47
2023/03/03 05:01:04;;;;;;;49.47;24.97;;;2.20;82.80;;;5.76;50.57;97811.59;5054463;28;20515;-49
2023/03/03 05:03:33;;;;;;;48.20;23.57;;;2.20;83.20;;;5.80;49.96;97816.50;5062874;28;20527;-48
2023/03/03 05:06:00;;;;;;;44.00;23.47;;;2.20;83.10;;;5.80;50.24;97815.69;5054332;28;20040;-51
2023/03/03 05:08:28;;;;;;;48.13;24.27;;;2.20;83.00;;;5.81;50.28;97826.09;5072546;28;20508;-46
2023/03/03 05:10:55;;;;;;;44.83;23.43;;;2.20;83.10;;;5.74;50.63;97817.03;5072726;28;20048;-47
2023/03/03 05:13:23;;;;;;;49.43;25.33;;;2.20;83.00;;;5.73;50.30;97810.06;5054542;28;20424;-48
2023/03/03 05:15:54;;;;;;;43.50;24.20;;;2.20;83.20;;;5.80;50.47;97813.88;5072711;28;20036;-46
2023/03/03 05:18:23;;;;;;;45.57;22.23;;;2.30;83.30;;;5.79;50.41;97809.53;5072604;28;20044;-46
2023/03/03 05:20:51;;;;;;;45.60;24.17;;;2.20;82.50;;;5.82;50.38;97813.75;5064911;28;20037;-45
2023/03/03 05:23:20;;;;;;;45.60;25.17;;;2.20;82.70;;;5.86;50.21;97808.06;5072546;28;20044;-52
2023/03/03 05:25:49;;;;;;;46.10;24.70;;;2.30;82.70;;;5.88;50.31;97811.44;5071988;28;20040;-51
2023/03/03 05:28:17;;;;;;;46.90;24.73;;;2.30;82.80;;;5.97;49.93;97814.28;5072513;28;20415;-51
2023/03/03 05:30:45;;;;;;;47.63;23.80;;;2.40;82.40;;;6.00;50.56;97820.16;5072581;28;20401;-48
2023/03/03 05:33:15;;;;;;;40.87;23.37;;;2.40;82.20;;;6.02;49.31;97826.16;5054758;28;20048;-49
2023/03/03 05:35:43;;;;;;;47.33;24.30;;;2.40;81.80;;;6.02;50.03;97826.16;5054056;28;20049;-48
2023/03/03 05:38:11;;;;;;;46.23;24.60;;;2.40;82.10;;;6.05;49.54;97830.38;5053731;28;20049;-50
2023/03/03 05:40:39;;;;;;;51.90;25.23;;;2.50;82.00;;;6.07;49.30;97836.38;5071784;28;20063;-48
2023/03/03 05:43:06;;;;;;;50.77;25.07;;;2.50;81.60;;;6.06;50.06;97838.16;5072207;28;20049;-47
2023/03/03 05:45:34;;;;;;;48.53;26.60;;;2.50;81.50;;;6.08;49.88;97840.66;5071741;28;20049;-50
2023/03/03 05:48:03;;;;;;;50.57;25.50;;;2.50;81.80;;;6.11;50.08;97843.91;5072114;28;20056;-45
2023/03/03 05:50:31;;;;;;;50.10;24.97;;;2.50;81.50;;;6.16;50.36;97842.66;5071689;28;20049;-48
2023/03/03 05:53:00;;;;;;;49.40;24.27;;;2.60;81.50;;;6.18;49.77;97846.84;5071651;28;20067;-47
2023/03/03 05:55:27;;;;;;;51.87;24.70;;;2.60;81.10;;;6.18;50.23;97848.66;5071418;28;20045;-48
2023/03/03 05:57:55;;;;;;;46.13;26.23;;;2.60;80.60;;;6.20;49.67;97847.56;5072253;28;20051;-43
2023/03/03 06:00:23;;;;;;;45.60;24.23;;;2.60;80.70;;;6.21;49.80;97840.50;5072131;28;20423;-48
2023/03/03 06:02:50;;;;;;;49.73;24.60;;;2.60;80.60;;;6.23;49.74;97849.97;5071220;28;20063;-46
2023/03/03 06:05:18;;;;;;;46.97;24.67;;;2.70;80.80;;;6.25;50.15;97857.78;5053734;28;20044;-43
2023/03/03 06:07:45;;;;;;;43.40;24.20;;;2.60;80.60;;;6.26;49.17;97859.44;5071456;28;20052;-44
2023/03/03 06:10:13;;;;;;;39.43;21.97;;;2.60;80.60;;;6.21;48.98;97857.19;5053239;28;20048;-44
2023/03/03 06:12:44;;;;;;;47.07;23.77;;;2.60;80.60;;;6.20;49.23;97860.78;5061389;28;20530;-46
2023/03/03 06:15:11;;;;;;;45.53;24.33;;;2.60;80.70;;;6.20;49.45;97860.78;5071155;28;20037;-46
2023/03/03 06:17:39;;;;;;;48.37;22.87;;;2.60;80.70;;;6.18;49.63;97864.53;5071352;28;20040;-43
2023/03/03 06:20:07;;;;;;;45.07;23.43;;;2.50;80.70;;;6.21;49.41;97866.94;5071582;28;20051;-44
2023/03/03 06:22:35;;;;;;;48.60;23.80;;;2.60;80.70;;;6.19;49.49;97861.75;5053824;28;20040;-47
2023/03/03 06:25:02;;;;;;;43.33;22.47;;;2.60;80.40;;;6.18;49.15;97865.34;5071270;28;20044;-45
2023/03/03 06:27:30;;;;;;;48.83;23.37;;;2.60;80.40;;;6.19;49.62;97864.41;5071307;28;20061;-45
2023/03/03 06:29:57;;;;;;;47.50;22.77;;;2.60;80.50;;;6.19;49.13;97871.50;5071909;28;20040;-43
2023/03/03 06:32:25;;;;;;;46.63;25.43;;;2.60;80.60;;;6.18;49.25;97870.66;5071285;28;20058;-43
2023/03/03 06:34:53;;;;;;;46.20;23.43;;;2.50;80.60;;;6.20;49.33;97884.56;5070388;28;20424;-44
2023/03/03 06:37:20;;;;;;;50.27;26.33;;;2.60;80.80;;;6.23;49.59;97889.63;5070097;28;20052;-47
2023/03/03 06:39:48;;;;;;;43.87;24.63;;;2.60;80.20;;;6.23;48.95;97883.50;5070632;28;20044;-43
2023/03/03 06:42:15;;;;;;;44.10;22.43;;;2.60;79.80;;;6.26;48.82;97878.81;5070456;28;20059;-43
2023/03/03 06:44:43;;;;;;;42.17;22.27;;;2.60;80.00;;;6.33;49.18;97883.56;5071133;28;20044;-48
2023/03/03 06:47:11;;;;;;;42.67;22.13;;;2.70;79.80;;;6.39;48.82;97888.34;5061510;28;20044;-42
2023/03/03 06:49:38;;;;;;;48.50;24.00;;;2.80;79.50;;;6.43;49.42;97892.41;5071132;28;20052;-42
2023/03/03 06:52:21;;;;;;;46.43;23.07;;;2.80;79.20;;;6.47;49.65;97891.16;5053472;28;20059;-48
2023/03/03 06:54:49;;;;;;;42.70;22.93;;;2.90;78.80;;;6.47;48.70;97893.81;5070823;28;20412;-42
2023/03/03 06:57:30;;;;;;;45.37;23.20;;;2.80;78.50;;;6.44;49.18;97889.63;5071394;28;20040;-41
2023/03/03 07:00:19;;;;;;;50.07;22.70;;;2.80;78.60;;;6.46;49.58;97892.97;5062521;28;20041;-42
2023/03/03 07:02:59;;;;;;;49.10;23.40;;;2.90;78.20;;;6.49;48.27;97902.47;5071400;28;20044;-50
2023/03/03 07:05:27;;;;;;;40.80;21.40;;;2.90;77.80;;;6.48;48.31;97900.78;5053375;28;20055;-44
2023/03/03 07:07:56;;;;;;;38.77;21.70;;;2.80;77.30;;;6.49;48.92;97898.03;5045584;28;20040;-46
2023/03/03 07:10:27;;;;;;;39.40;22.87;;;2.80;77.50;;;6.54;48.42;97902.91;5070950;28;20445;-46
2023/03/03 07:13:15;;;;;;;32.27;18.37;;;2.90;77.30;;;6.60;48.14;97909.50;5063137;28;20040;-39
2023/03/03 07:15:43;;;;;;;36.83;19.57;;;3.00;75.20;;;6.63;47.70;97901.28;5055056;28;20051;-42
2023/03/03 07:18:24;;;;;;;39.30;19.43;;;3.00;74.80;;;6.61;47.78;97900.59;5053174;28;20392;-42
2023/03/03 07:20:52;;;;;;;37.17;19.03;;;3.00;74.60;;;6.60;47.58;97905.03;5053203;28;20047;-41
2023/03/03 07:23:25;;;;;;;33.50;19.57;;;3.00;73.70;;;6.60;47.79;97896.28;5071324;28;20056;-47
2023/03/03 07:25:53;;;;;;;35.30;18.40;;;3.00;74.00;;;6.60;47.64;97904.22;5072459;28;20045;-49
2023/03/03 07:28:27;;;;;;;31.30;17.20;;;2.90;73.80;;;6.60;47.50;97905.03;5074398;28;20045;-43
2023/03/03 07:30:56;;;;;;;37.43;18.57;;;2.90;73.50;;;6.65;48.01;97909.94;5057154;28;20518;-48
2023/03/03 07:33:28;;;;;;;34.87;19.83;;;3.00;73.90;;;6.70;47.51;97920.97;5074783;28;20044;-46
2023/03/03 07:35:58;;;;;;;35.90;19.57;;;3.10;73.30;;;6.68;46.75;97912.34;5074417;28;20041;-45
2023/03/03 07:38:42;;;;;;;36.87;19.40;;;3.10;73.10;;;6.66;47.78;97912.44;5074527;28;20040;-44
2023/03/03 07:41:14;;;;;;;;;;;3.00;72.80;;;6.70;47.07;97907.75;5068471;28;20040;-44
2023/03/03 07:43:53;;;;;;;33.57;17.77;;;3.10;72.20;;;6.80;47.27;97916.56;5057068;28;19921;-44
2023/03/03 07:46:41;;;;;;;39.27;19.10;;;3.10;73.20;;;6.81;46.71;97918.25;5056959;28;20045;-46
2023/03/03 07:49:19;;;;;;;35.97;18.90;;;3.20;73.30;;;6.86;47.10;97926.66;5067935;28;20040;-49
2023/03/03 07:51:58;;;;;;;36.23;19.93;;;3.30;72.90;;;6.92;47.23;97927.09;5073772;28;20523;-46
2023/03/03 07:54:39;;;;;;;30.13;18.70;;;3.30;73.30;;;6.96;46.98;97929.34;5073268;28;20036;-46
2023/03/03 07:57:35;;;;;;;38.17;19.77;;;3.40;72.70;;;6.96;46.62;97931.13;5065332;28;20071;-48
2023/03/03 08:00:15;;;;;;;37.93;19.47;;;3.40;71.00;;;6.97;46.60;97946.06;5050032;28;20060;-44
2023/03/03 08:03:14;;;;;;;35.47;20.57;;;3.50;71.80;;;6.95;47.02;97943.53;5073857;28;20416;-47
2023/03/03 08:05:45;;;;;;;34.93;20.67;;;3.50;72.30;;;7.01;47.21;97943.00;5056446;28;20048;-45
2023/03/03 08:08:35;;;;;;;37.20;19.70;;;3.50;73.00;;;6.94;47.23;97939.25;5074034;28;20052;-47
2023/03/03 08:11:04;;;;;;;29.10;17.27;;;3.50;71.60;;;6.98;46.39;97948.59;5035590;28;20060;-43
2023/03/03 08:13:32;;;;;;;33.10;18.83;;;3.50;71.10;;;6.99;46.49;97944.13;5070330;28;20048;-44
2023/03/03 08:16:08;;;;;;;30.83;17.07;;;3.50;69.90;;;7.05;46.17;97946.25;5073392;28;20496;-44
2023/03/03 08:18:46;;;;;;;30.40;16.67;;;3.60;69.40;;;7.05;45.74;97951.53;5073438;28;20088;-43
2023/03/03 08:21:19;;;;;;;31.50;16.70;;;3.50;67.60;;;7.04;45.24;97949.88;5055777;28;20044;-44
2023/03/03 08:23:52;;;;;;;27.55;16.55;;;3.50;67.60;;;7.06;45.35;97940.00;5055353;28;20060;-44
2023/03/03 08:26:21;;;;;;;35.43;19.00;;;3.50;68.30;;;7.10;45.78;97939.59;5072580;28;20119;-46
2023/03/03 08:28:50;;;;;;;34.20;19.10;;;3.60;68.80;;;7.15;46.13;97939.19;5072601;28;20070;-44
2023/03/03 08:31:18;;;;;;;31.97;19.33;;;3.70;69.00;;;7.17;46.17;97936.41;5055389;28;20051;-46
2023/03/03 08:34:05;;;;;;;37.43;19.40;;;3.70;69.20;;;7.20;45.49;97939.63;5065650;28;20048;-44
2023/03/03 08:36:32;;;;;;;31.07;17.77;;;3.70;68.80;;;7.21;46.12;97943.97;5072243;28;20067;-46
2023/03/03 08:39:04;;;;;;;40.90;20.07;;;3.70;69.60;;;7.21;45.83;97924.56;5065121;28;20062;-44
2023/03/03 08:41:31;;;;;;;34.37;20.23;;;3.80;69.50;;;7.20;45.67;97936.16;5055056;28;20052;-45
2023/03/03 08:43:59;;;;;;;31.67;17.57;;;3.70;69.30;;;7.13;45.99;97935.00;5072779;28;20033;-45
2023/03/03 08:46:27;;;;;;;36.40;19.47;;;3.60;69.00;;;7.02;45.67;97938.59;5072689;28;20049;-49
2023/03/03 08:48:55;;;;;;;34.43;17.27;;;3.60;69.60;;;7.01;45.49;97939.53;5072732;28;20047;-46
2023/03/03 08:51:24;;;;;;;41.43;18.33;;;3.50;68.50;;;6.95;46.02;97945.38;5072411;28;20047;-44
2023/03/03 08:53:51;;;;;;;31.97;17.77;;;3.50;69.50;;;6.98;45.80;97943.28;5071413;28;20048;-46
2023/03/03 08:56:19;;;;;;;37.13;18.23;;;3.50;69.40;;;7.02;46.14;97947.34;5072391;28;20044;-47
2023/03/03 08:58:49;;;;;;;32.63;17.87;;;3.60;68.70;;;6.99;45.74;97944.13;5072331;28;20415;-46
2023/03/03 09:01:31;;;;;;;28.83;18.73;;;3.50;68.30;;;7.02;45.69;97952.66;5071714;28;20044;-45
2023/03/03 09:03:59;;;;;;;32.73;18.10;;;3.60;68.30;;;7.00;45.75;97957.25;5072414;28;20040;-46
2023/03/03 09:06:27;;;;;;;32.27;17.27;;;3.60;67.60;;;6.96;45.16;97955.81;5071980;28;20052;-48
2023/03/03 09:08:55;;;;;;;30.63;16.13;;;3.60;68.50;;;6.96;45.13;97954.97;5072463;28;20483;-48
2023/03/03 09:11:28;;;;;;;32.63;17.03;;;3.50;66.70;;;6.96;45.70;97965.56;5054588;28;20055;-48
2023/03/03 09:14:10;;;;;;;27.35;17.08;;;3.50;67.50;;;6.93;45.62;97964.00;5053478;28;20044;-45
2023/03/03 09:16:52;;;;;;;35.10;17.43;;;3.50;66.80;;;6.89;45.54;97976.66;5071599;28;20049;-45
2023/03/03 09:19:32;;;;;;;33.10;19.10;;;3.40;67.60;;;6.88;45.08;97975.00;5055949;28;20049;-44
2023/03/03 09:22:22;;;;;;;35.70;19.23;;;3.50;67.80;;;6.86;45.20;97974.28;5064096;28;20048;-45
2023/03/03 09:24:55;;;;;;;30.23;18.07;;;3.40;67.90;;;6.90;45.64;97983.66;5054359;28;20049;-45
2023/03/03 09:27:36;;;;;;;34.22;19.48;;;3.40;68.40;;;6.93;45.71;97979.06;5054681;28;20492;-45
2023/03/03 09:30:43;;;;;;;34.70;18.20;;;3.50;68.10;;;6.84;46.02;97981.53;5064261;28;20523;-44
2023/03/03 09:33:42;;;;;;;37.77;21.60;;;3.50;69.10;;;6.84;46.17;97991.25;5063280;28;20433;-49
2023/03/03 09:36:37;;;;;;;37.10;19.07;;;3.50;70.10;;;6.86;46.17;97982.22;5064051;28;20099;-48
2023/03/03 09:39:35;;;;;;;32.67;18.53;;;3.60;70.10;;;6.97;46.20;97980.47;5047168;28;20049;-44
2023/03/03 09:42:19;;;;;;;32.20;18.07;;;3.70;70.20;;;7.06;45.84;97982.34;5053615;28;20068;-46
2023/03/03 09:45:20;;;;;;;31.15;17.00;;;3.80;70.00;;;7.03;46.28;97972.00;5071816;28;20049;-44
2023/03/03 09:48:18;;;;;;;33.47;17.93;;;3.70;70.40;;;7.02;46.74;97970.34;5070761;28;20044;-48
2023/03/03 09:51:28;;;;;;;33.17;17.73;;;3.70;70.80;;;7.11;46.18;97980.13;5071230;28;20051;-44
2023/03/03 09:54:19;;;;;;;30.57;18.20;;;3.90;70.80;;;7.29;46.26;97975.09;5055468;28;20048;-46
2023/03/03 09:57:15;;;;;;;33.40;17.67;;;4.00;70.30;;;7.35;46.66;97979.84;5070787;28;20044;-45
2023/03/03 10:00:23;;;;;;;34.07;18.57;;;4.10;69.60;;;7.38;46.45;97982.22;5070591;28;20045;-47
2023/03/03 10:03:45;;;;;;;35.33;19.27;;;4.20;69.50;;;7.40;46.55;97985.56;5071297;28;20534;-47
2023/03/03 10:06:32;;;;;;;29.83;18.37;;;4.20;69.00;;;7.48;45.92;97985.75;5038322;28;20044;-45
2023/03/03 10:09:35;;;;;;;33.00;19.10;;;4.20;69.30;;;7.40;46.36;97979.44;5071551;28;20060;-47
2023/03/03 10:12:09;;;;;;;31.00;19.00;;;4.20;69.20;;;7.47;46.22;97985.88;5054271;28;20047;-44
2023/03/03 10:15:18;;;;;;;29.98;17.27;;;4.20;69.40;;;7.43;46.01;97995.91;5071401;28;20480;-44
2023/03/03 10:17:52;;;;;;;27.27;16.53;;;4.20;68.50;;;7.48;45.44;97993.72;5069006;28;20048;-44
2023/03/03 10:20:38;;;;;;;;;;;4.20;68.70;;;7.53;45.85;97987.16;5071436;28;20051;-47
2023/03/03 10:23:55;;;;;;;26.40;15.10;;;4.20;67.50;;;7.66;45.95;97991.25;5065276;28;19943;-49
2023/03/03 10:27:01;;;;;;;27.90;15.87;;;4.30;68.20;;;7.76;45.92;97993.09;5046197;28;20059;-48
2023/03/03 10:30:05;;;;;;;34.93;17.83;;;4.50;67.80;;;7.97;45.31;97993.00;5067698;28;20032;-46
2023/03/03 10:32:54;;;;;;;26.53;15.77;;;4.70;66.30;;;8.03;45.07;97993.31;5066743;28;20286;-45
2023/03/03 10:35:49;;;;;;;25.37;15.73;;;4.80;65.20;;;8.13;45.28;97990.66;5048147;28;20419;-47
2023/03/03 10:39:02;;;;;;;27.73;15.40;;;5.00;65.70;;;8.35;44.90;98000.19;5052411;28;20032;-43
2023/03/03 10:42:14;;;;;;;25.33;15.77;;;5.20;64.40;;;8.49;44.32;97996.31;5048992;28;20044;-46
2023/03/03 10:45:30;;;;;;;27.33;16.20;;;5.30;63.20;;;8.59;44.33;97997.16;5054063;28;20040;-47
2023/03/03 10:48:27;;;;;;;28.33;14.57;;;5.40;62.50;;;8.75;43.90;97996.59;5070797;28;20040;-44
2023/03/03 10:51:05;;;;;;;27.43;16.07;;;5.60;61.30;;;8.91;44.02;97990.69;5070932;28;20040;-44
2023/03/03 10:53:58;;;;;;;30.00;18.60;;;5.70;63.10;;;9.06;43.92;97994.59;5070160;28;20040;-41